Celebrity Century — 9HJI9 — position and weather

sailwx.info

Track history (hours):
 
Tides and Currents Weather Stations Pressure Air Temp Water Temp Dewpoint Dewpoint Depression Visibility Wind Speed Wind Dir Waves Ship Positions

Celebrity Century

Last reported at 2017-Sep-25 00:06 UTC. Time now 2017-Sep-26 14:54 UTC.
Position N 35°28' E 122°09'.

Length 252 m; draft 8 m.

Type: Ship. MMSI: 249054000.

Date/timePositionNaut miles runAvg speedWind from/ knotsBaromVisibWave heightAir tempDewpointWater temp
2017-Sep-25 00:06N 35°28' E 122°09'  
2017-Sep-19 19:51N 32°48' E 123°22'410.6
2017-Sep-19 19:30N 32°45' E 123°19'5 9.8
2017-Sep-19 19:00N 32°40' E 123°19'5 9.7
2017-Sep-19 18:30N 32°36' E 123°20'4 8.8
2017-Sep-19 18:00N 32°33' E 123°24'5 9.0
2017-Sep-19 17:30N 32°31' E 123°29'4 8.6
2017-Sep-19 16:59N 32°31' E 123°34'4 8.6
2017-Sep-19 16:30N 32°31' E 123°39'5 9.8
2017-Sep-19 15:59N 32°28' E 123°44'1311.8
2017-Sep-19 14:54N 32°18' E 123°53'511.8
2017-Sep-19 14:30N 32°14' E 123°56'912.2
2017-Sep-19 13:47N 32°07' E 124°02'311.9
2017-Sep-19 13:30N 32°05' E 124°05'1012.0
2017-Sep-19 12:39N 31°60' E 124°16'412.0
2017-Sep-19 12:19N 31°58' E 124°20'711.6
2017-Sep-19 11:41N 31°53' E 124°26'68 5.7
2017-Sep-18 23:46N 31°06' E 123°28'3 9.8
2017-Sep-18 23:31N 31°05' E 123°25'5 9.6
2017-Sep-18 23:00N 31°04' E 123°20'4 8.8
2017-Sep-18 22:30N 31°05' E 123°15'5 9.4
2017-Sep-18 22:00N 31°03' E 123°10'5 9.7
2017-Sep-18 21:30N 31°00' E 123°05'510.6
2017-Sep-18 21:00N 31°03' E 123°00'511.2
2017-Sep-18 20:30N 31°05' E 122°54'611.4
2017-Sep-18 20:01N 31°05' E 122°47'611.8
2017-Sep-18 19:30N 31°05' E 122°40'612.3
2017-Sep-18 19:00N 31°06' E 122°33'713.1
2017-Sep-18 18:30N 31°06' E 122°26'1013.6
2017-Sep-18 17:46N 31°08' E 122°15'415.0
2017-Sep-18 17:30N 31°11' E 122°11'714.3
2017-Sep-18 17:00N 31°14' E 122°03'612.4
2017-Sep-18 16:31N 31°15' E 121°56'510.6
2017-Sep-18 16:00N 31°17' E 121°50'4 8.2
2017-Sep-18 15:31N 31°19' E 121°46'0 0.0
2017-Sep-18 06:03N 31°19' E 121°46'0 0.0
2017-Sep-18 05:57N 31°19' E 121°46'0 0.0
2017-Sep-18 05:27N 31°19' E 121°46'0 0.1
2017-Sep-18 04:57N 31°19' E 121°46'0 0.2
2017-Sep-18 04:27N 31°19' E 121°46'0 0.1
2017-Sep-18 03:57N 31°19' E 121°46'0 0.1
2017-Sep-18 03:27N 31°19' E 121°46'0 0.0
2017-Sep-18 02:57N 31°19' E 121°46'0 0.0
2017-Sep-18 02:30N 31°19' E 121°46'0 0.0
2017-Sep-18 02:00N 31°19' E 121°46'0 0.0
2017-Sep-18 01:30N 31°19' E 121°46'0 0.9
2017-Sep-18 01:00N 31°19' E 121°46'4 7.0
2017-Sep-18 00:30N 31°20' E 121°42'4 8.7
2017-Sep-18 00:00N 31°22' E 121°37'5 9.2
2017-Sep-17 23:30N 31°24' E 121°33'2 3.7
2017-Sep-17 22:59N 31°25' E 121°30'0 0.0
2017-Sep-17 22:29N 31°25' E 121°30'0 0.0
2017-Sep-17 21:59N 31°25' E 121°30'0 0.0
2017-Sep-17 21:28N 31°25' E 121°30'0 0.0
2017-Sep-17 20:58N 31°25' E 121°30'0 0.0
2017-Sep-17 20:29N 31°25' E 121°30'0 0.0
2017-Sep-17 19:55N 31°25' E 121°30'0 0.0
2017-Sep-17 19:28N 31°25' E 121°30'0 0.0
2017-Sep-17 18:58N 31°25' E 121°30'0 0.0
2017-Sep-17 18:28N 31°25' E 121°30'0 0.0
2017-Sep-17 17:58N 31°25' E 121°30'0 0.0
2017-Sep-17 17:28N 31°25' E 121°30'0 0.0
2017-Sep-17 16:58N 31°25' E 121°30'0 0.0
2017-Sep-17 16:28N 31°25' E 121°30'0 0.0
2017-Sep-17 15:59N 31°25' E 121°30'0 0.0
2017-Sep-17 15:29N 31°25' E 121°30'0 0.0
2017-Sep-17 14:55N 31°25' E 121°30'0 0.0
2017-Sep-17 14:28N 31°25' E 121°30'0 0.0
2017-Sep-17 13:58N 31°25' E 121°30'0 0.0
2017-Sep-17 13:28N 31°25' E 121°30'0 0.0
2017-Sep-17 12:59N 31°25' E 121°30'0 0.0
2017-Sep-17 12:28N 31°25' E 121°30'0 0.0
2017-Sep-17 11:58N 31°25' E 121°30'0 0.0
2017-Sep-17 11:30N 31°25' E 121°30'2 4.0
2017-Sep-17 11:01N 31°24' E 121°33'510.3
2017-Sep-17 10:31N 31°22' E 121°38'611.7
2017-Sep-17 10:01N 31°19' E 121°44'612.5
2017-Sep-17 09:31N 31°17' E 121°51'4 7.0
2017-Sep-17 09:00N 31°16' E 121°55'4 7.8
2017-Sep-17 08:31N 31°15' E 121°59'612.4
2017-Sep-17 08:00N 31°14' E 122°06'612.9
2017-Sep-17 07:31N 31°10' E 122°12'612.9
2017-Sep-17 07:00N 31°07' E 122°19'3 7.0
2017-Sep-17 06:30N 31°06' E 122°23'2 2.7
2017-Sep-17 05:40N 31°08' E 122°25'0 0.0
2017-Sep-17 05:10N 31°08' E 122°25'0 0.0
2017-Sep-17 04:52N 31°08' E 122°25'0 0.1
2017-Sep-17 04:28N 31°08' E 122°25'0 0.0
2017-Sep-17 03:04N 31°08' E 122°25'0 0.0
2017-Sep-17 02:46N 31°08' E 122°25'0 0.1
2017-Sep-17 02:22N 31°08' E 122°25'0 0.0
2017-Sep-17 01:49N 31°08' E 122°25'0 0.2
2017-Sep-17 01:28N 31°08' E 122°25'0 0.1
2017-Sep-17 00:58N 31°08' E 122°25'0 0.1
2017-Sep-17 00:25N 31°08' E 122°25'0 0.0
2017-Sep-16 23:55N 31°08' E 122°25'0 0.1
2017-Sep-16 23:28N 31°08' E 122°25'0 0.0
2017-Sep-16 22:55N 31°08' E 122°25'0 0.0
2017-Sep-16 22:28N 31°08' E 122°25'0 0.1
2017-Sep-16 21:55N 31°08' E 122°25'0 0.0
2017-Sep-16 21:28N 31°08' E 122°25'0 0.1
2017-Sep-16 20:40N 31°08' E 122°25'1 4.8
2017-Sep-16 20:30N 31°07' E 122°24'1 1.6
2017-Sep-16 19:59N 31°07' E 122°23'0 0.1
2017-Sep-16 19:23N 31°07' E 122°23'0 0.1
2017-Sep-16 18:59N 31°07' E 122°23'2 3.6
2017-Sep-16 18:30N 31°07' E 122°25'5 8.8
2017-Sep-16 17:59N 31°07' E 122°31'  
Track history (hours):
 
Tides and Currents Weather Stations Pressure Air Temp Water Temp Dewpoint Dewpoint Depression Visibility Wind Speed Wind Dir Waves Ship Positions

Celebrity Century

Last reported at 2017-Sep-25 00:06 UTC. Time now 2017-Sep-26 14:54 UTC.
Position N 35°28' E 122°09'.

Length 252 m; draft 8 m.

Type: Ship. MMSI: 249054000.

Date/timePositionNaut miles runAvg speedWind from/ knotsBaromVisibWave heightAir tempDewpointWater temp
2017-Sep-25 00:06N 35°28' E 122°09'  
2017-Sep-19 19:51N 32°48' E 123°22'410.6
2017-Sep-19 19:30N 32°45' E 123°19'5 9.8
2017-Sep-19 19:00N 32°40' E 123°19'5 9.7
2017-Sep-19 18:30N 32°36' E 123°20'4 8.8
2017-Sep-19 18:00N 32°33' E 123°24'5 9.0
2017-Sep-19 17:30N 32°31' E 123°29'4 8.6
2017-Sep-19 16:59N 32°31' E 123°34'4 8.6
2017-Sep-19 16:30N 32°31' E 123°39'5 9.8
2017-Sep-19 15:59N 32°28' E 123°44'1311.8
2017-Sep-19 14:54N 32°18' E 123°53'511.8
2017-Sep-19 14:30N 32°14' E 123°56'912.2
2017-Sep-19 13:47N 32°07' E 124°02'311.9
2017-Sep-19 13:30N 32°05' E 124°05'1012.0
2017-Sep-19 12:39N 31°60' E 124°16'412.0
2017-Sep-19 12:19N 31°58' E 124°20'711.6
2017-Sep-19 11:41N 31°53' E 124°26'68 5.7
2017-Sep-18 23:46N 31°06' E 123°28'3 9.8
2017-Sep-18 23:31N 31°05' E 123°25'5 9.6
2017-Sep-18 23:00N 31°04' E 123°20'4 8.8
2017-Sep-18 22:30N 31°05' E 123°15'5 9.4
2017-Sep-18 22:00N 31°03' E 123°10'5 9.7
2017-Sep-18 21:30N 31°00' E 123°05'510.6
2017-Sep-18 21:00N 31°03' E 123°00'511.2
2017-Sep-18 20:30N 31°05' E 122°54'611.4
2017-Sep-18 20:01N 31°05' E 122°47'611.8
2017-Sep-18 19:30N 31°05' E 122°40'612.3
2017-Sep-18 19:00N 31°06' E 122°33'713.1
2017-Sep-18 18:30N 31°06' E 122°26'1013.6
2017-Sep-18 17:46N 31°08' E 122°15'415.0
2017-Sep-18 17:30N 31°11' E 122°11'714.3
2017-Sep-18 17:00N 31°14' E 122°03'612.4
2017-Sep-18 16:31N 31°15' E 121°56'510.6
2017-Sep-18 16:00N 31°17' E 121°50'4 8.2
2017-Sep-18 15:31N 31°19' E 121°46'0 0.0
2017-Sep-18 06:03N 31°19' E 121°46'0 0.0
2017-Sep-18 05:57N 31°19' E 121°46'0 0.0
2017-Sep-18 05:27N 31°19' E 121°46'0 0.1
2017-Sep-18 04:57N 31°19' E 121°46'0 0.2
2017-Sep-18 04:27N 31°19' E 121°46'0 0.1
2017-Sep-18 03:57N 31°19' E 121°46'0 0.1
2017-Sep-18 03:27N 31°19' E 121°46'0 0.0
2017-Sep-18 02:57N 31°19' E 121°46'0 0.0
2017-Sep-18 02:30N 31°19' E 121°46'0 0.0
2017-Sep-18 02:00N 31°19' E 121°46'0 0.0
2017-Sep-18 01:30N 31°19' E 121°46'0 0.9
2017-Sep-18 01:00N 31°19' E 121°46'4 7.0
2017-Sep-18 00:30N 31°20' E 121°42'4 8.7
2017-Sep-18 00:00N 31°22' E 121°37'5 9.2
2017-Sep-17 23:30N 31°24' E 121°33'2 3.7
2017-Sep-17 22:59N 31°25' E 121°30'0 0.0
2017-Sep-17 22:29N 31°25' E 121°30'0 0.0
2017-Sep-17 21:59N 31°25' E 121°30'0 0.0
2017-Sep-17 21:28N 31°25' E 121°30'0 0.0
2017-Sep-17 20:58N 31°25' E 121°30'0 0.0
2017-Sep-17 20:29N 31°25' E 121°30'0 0.0
2017-Sep-17 19:55N 31°25' E 121°30'0 0.0
2017-Sep-17 19:28N 31°25' E 121°30'0 0.0
2017-Sep-17 18:58N 31°25' E 121°30'0 0.0
2017-Sep-17 18:28N 31°25' E 121°30'0 0.0
2017-Sep-17 17:58N 31°25' E 121°30'0 0.0
2017-Sep-17 17:28N 31°25' E 121°30'0 0.0
2017-Sep-17 16:58N 31°25' E 121°30'0 0.0
2017-Sep-17 16:28N 31°25' E 121°30'0 0.0
2017-Sep-17 15:59N 31°25' E 121°30'0 0.0
2017-Sep-17 15:29N 31°25' E 121°30'0 0.0
2017-Sep-17 14:55N 31°25' E 121°30'0 0.0
2017-Sep-17 14:28N 31°25' E 121°30'0 0.0
2017-Sep-17 13:58N 31°25' E 121°30'0 0.0
2017-Sep-17 13:28N 31°25' E 121°30'0 0.0
2017-Sep-17 12:59N 31°25' E 121°30'0 0.0
2017-Sep-17 12:28N 31°25' E 121°30'0 0.0
2017-Sep-17 11:58N 31°25' E 121°30'0 0.0
2017-Sep-17 11:30N 31°25' E 121°30'2 4.0
2017-Sep-17 11:01N 31°24' E 121°33'510.3
2017-Sep-17 10:31N 31°22' E 121°38'611.7
2017-Sep-17 10:01N 31°19' E 121°44'612.5
2017-Sep-17 09:31N 31°17' E 121°51'4 7.0
2017-Sep-17 09:00N 31°16' E 121°55'4 7.8
2017-Sep-17 08:31N 31°15' E 121°59'612.4
2017-Sep-17 08:00N 31°14' E 122°06'612.9
2017-Sep-17 07:31N 31°10' E 122°12'612.9
2017-Sep-17 07:00N 31°07' E 122°19'3 7.0
2017-Sep-17 06:30N 31°06' E 122°23'2 2.7
2017-Sep-17 05:40N 31°08' E 122°25'0 0.0
2017-Sep-17 05:10N 31°08' E 122°25'0 0.0
2017-Sep-17 04:52N 31°08' E 122°25'0 0.1
2017-Sep-17 04:28N 31°08' E 122°25'0 0.0
2017-Sep-17 03:04N 31°08' E 122°25'0 0.0
2017-Sep-17 02:46N 31°08' E 122°25'0 0.1
2017-Sep-17 02:22N 31°08' E 122°25'0 0.0
2017-Sep-17 01:49N 31°08' E 122°25'0 0.2
2017-Sep-17 01:28N 31°08' E 122°25'0 0.1
2017-Sep-17 00:58N 31°08' E 122°25'0 0.1
2017-Sep-17 00:25N 31°08' E 122°25'0 0.0
2017-Sep-16 23:55N 31°08' E 122°25'0 0.1
2017-Sep-16 23:28N 31°08' E 122°25'0 0.0
2017-Sep-16 22:55N 31°08' E 122°25'0 0.0
2017-Sep-16 22:28N 31°08' E 122°25'0 0.1
2017-Sep-16 21:55N 31°08' E 122°25'0 0.0
2017-Sep-16 21:28N 31°08' E 122°25'0 0.1
2017-Sep-16 20:40N 31°08' E 122°25'1 4.8
2017-Sep-16 20:30N 31°07' E 122°24'1 1.6
2017-Sep-16 19:59N 31°07' E 122°23'0 0.1
2017-Sep-16 19:23N 31°07' E 122°23'0 0.1
2017-Sep-16 18:59N 31°07' E 122°23'2 3.6
2017-Sep-16 18:30N 31°07' E 122°25'5 8.8
2017-Sep-16 17:59N 31°07' E 122°31'  

Dump ship's entire track history